Time;durP1;ratioP1;P1;durP2;ratioP2;P2;SDS_P1;SDS_P2;PMS_P1;PMS_P2;Temp;Humidity;BMP_temperature;BMP_pressure;BME280_temperature;BME280_humidity;BME280_pressure;Samples;Min_cycle;Max_cycle;Signal;HPM_P1;HPM_P2
2021/10/20 00:01:31;;;;;;;0.10;0.10;;;;;;;;;;5054863;28;20231;-72
2021/10/20 00:03:59;;;;;;;0.60;0.20;;;;;;;;;;5054130;28;20204;-72
2021/10/20 00:06:26;;;;;;;0.60;0.60;;;;;;;;;;5060321;28;20282;-72
2021/10/20 00:08:54;;;;;;;0.03;0.03;;;;;;;;;;5052667;28;20199;-73
2021/10/20 00:11:23;;;;;;;0.30;0.30;;;;;;;;;;5055948;28;20698;-73
2021/10/20 00:13:50;;;;;;;0.10;0.10;;;;;;;;;;5054393;28;20211;-73
2021/10/20 00:16:19;;;;;;;0.00;0.00;;;;;;;;;;5064600;28;20199;-72
2021/10/20 00:18:48;;;;;;;1.27;1.03;;;;;;;;;;5050941;28;20568;-72
2021/10/20 00:21:19;;;;;;;2.00;1.40;;;;;;;;;;5052482;28;20227;-72
2021/10/20 00:23:46;;;;;;;0.83;0.83;;;;;;;;;;5053708;28;20210;-73
2021/10/20 00:26:13;;;;;;;2.13;1.40;;;;;;;;;;5063198;28;20195;-72
2021/10/20 00:28:42;;;;;;;1.57;1.47;;;;;;;;;;5048886;28;20204;-72
2021/10/20 00:31:10;;;;;;;1.90;0.93;;;;;;;;;;5057711;28;20206;-72
2021/10/20 00:33:37;;;;;;;0.60;0.60;;;;;;;;;;5056191;28;20242;-72
2021/10/20 00:36:05;;;;;;;0.37;0.37;;;;;;;;;;5052680;28;20210;-72
2021/10/20 00:38:32;;;;;;;0.57;0.57;;;;;;;;;;5050642;28;20204;-72
2021/10/20 00:41:00;;;;;;;1.43;1.37;;;;;;;;;;5054651;28;20222;-72
2021/10/20 00:43:28;;;;;;;0.53;0.53;;;;;;;;;;5055178;28;20199;-72
2021/10/20 00:45:57;;;;;;;0.53;0.53;;;;;;;;;;5053117;28;20211;-72
2021/10/20 00:48:24;;;;;;;3.20;1.57;;;;;;;;;;5053920;28;20218;-72
2021/10/20 00:50:51;;;;;;;0.70;0.70;;;;;;;;;;5061165;28;20215;-72
2021/10/20 00:53:19;;;;;;;0.03;0.03;;;;;;;;;;5060803;28;20198;-72
2021/10/20 00:55:47;;;;;;;0.73;0.70;;;;;;;;;;5053038;28;20664;-71
2021/10/20 00:58:15;;;;;;;2.37;2.23;;;;;;;;;;5061383;28;20226;-72
2021/10/20 01:00:42;;;;;;;1.50;0.77;;;;;;;;;;5057346;28;20617;-72
2021/10/20 01:03:11;;;;;;;0.00;0.00;;;;;;;;;;5051128;28;20195;-72
2021/10/20 01:05:39;;;;;;;0.00;0.00;;;;;;;;;;5051308;28;20665;-72
2021/10/20 01:08:06;;;;;;;0.40;0.40;;;;;;;;;;5061087;28;20200;-72
2021/10/20 01:10:34;;;;;;;0.00;0.00;;;;;;;;;;5051119;28;20219;-72
2021/10/20 01:13:01;;;;;;;0.00;0.00;;;;;;;;;;5050433;28;20199;-72
2021/10/20 01:15:29;;;;;;;0.57;0.30;;;;;;;;;;5052808;28;20262;-73
2021/10/20 01:17:57;;;;;;;1.50;0.57;;;;;;;;;;5051852;28;20200;-72
2021/10/20 01:20:29;;;;;;;0.87;0.87;;;;;;;;;;5052083;28;20203;-72
2021/10/20 01:22:59;;;;;;;1.67;0.53;;;;;;;;;;5051818;28;20703;-72
2021/10/20 01:25:26;;;;;;;1.97;1.87;;;;;;;;;;5051583;28;20203;-72
2021/10/20 01:27:54;;;;;;;1.70;1.60;;;;;;;;;;5055556;28;20202;-72
2021/10/20 01:30:21;;;;;;;0.30;0.30;;;;;;;;;;5059885;28;20222;-72
2021/10/20 01:32:49;;;;;;;1.17;0.77;;;;;;;;;;5050175;28;20232;-73
2021/10/20 01:35:16;;;;;;;0.80;0.80;;;;;;;;;;5051023;28;20195;-72
2021/10/20 01:37:44;;;;;;;1.60;1.50;;;;;;;;;;5050220;28;20203;-72
2021/10/20 01:40:13;;;;;;;1.93;1.43;;;;;;;;;;5057840;28;20203;-73
2021/10/20 01:42:41;;;;;;;1.80;1.10;;;;;;;;;;5050958;28;20626;-72
2021/10/20 01:45:10;;;;;;;0.97;0.97;;;;;;;;;;5051116;28;20214;-72
2021/10/20 01:47:37;;;;;;;1.87;1.77;;;;;;;;;;5052675;28;20207;-72
2021/10/20 01:50:07;;;;;;;0.77;0.77;;;;;;;;;;5057555;28;20199;-72
2021/10/20 01:52:34;;;;;;;0.30;0.30;;;;;;;;;;5051428;28;20195;-73
2021/10/20 01:55:02;;;;;;;1.13;1.13;;;;;;;;;;5056876;28;20570;-72
2021/10/20 01:57:31;;;;;;;0.40;0.40;;;;;;;;;;5051462;28;20688;-74
2021/10/20 01:59:59;;;;;;;0.27;0.10;;;;;;;;;;5049253;28;20204;-72
2021/10/20 02:02:26;;;;;;;0.43;0.43;;;;;;;;;;5051488;28;20231;-72
2021/10/20 02:04:54;;;;;;;0.77;0.73;;;;;;;;;;5053200;28;20566;-72
2021/10/20 02:07:21;;;;;;;2.90;2.70;;;;;;;;;;5051619;28;20195;-72
2021/10/20 02:09:49;;;;;;;1.30;0.33;;;;;;;;;;5057050;28;20218;-72
2021/10/20 02:12:16;;;;;;;0.07;0.07;;;;;;;;;;5058998;28;20204;-73
2021/10/20 02:14:45;;;;;;;0.97;0.70;;;;;;;;;;5048563;28;20664;-73
2021/10/20 02:17:12;;;;;;;1.50;1.40;;;;;;;;;;5050246;28;20657;-72
2021/10/20 02:19:40;;;;;;;0.97;0.47;;;;;;;;;;5049356;28;20204;-71
2021/10/20 02:22:08;;;;;;;1.23;1.13;;;;;;;;;;5055267;28;20258;-73
2021/10/20 02:24:35;;;;;;;0.10;0.10;;;;;;;;;;5062787;28;20663;-72
2021/10/20 02:27:03;;;;;;;1.37;0.77;;;;;;;;;;5054159;28;20203;-71
2021/10/20 02:29:31;;;;;;;5.10;1.70;;;;;;;;;;5050220;28;20204;-72
2021/10/20 02:32:00;;;;;;;0.67;0.67;;;;;;;;;;5058826;28;20207;-72
2021/10/20 02:34:27;;;;;;;0.90;0.90;;;;;;;;;;5049306;28;20242;-72
2021/10/20 02:36:55;;;;;;;2.10;1.40;;;;;;;;;;5049410;28;20204;-72
2021/10/20 02:39:22;;;;;;;0.50;0.43;;;;;;;;;;5052266;28;20215;-72
2021/10/20 02:41:50;;;;;;;2.40;0.97;;;;;;;;;;5057468;28;20214;-72
2021/10/20 02:44:17;;;;;;;1.97;1.40;;;;;;;;;;5049272;28;20199;-73
2021/10/20 02:46:45;;;;;;;0.67;0.67;;;;;;;;;;5058540;28;20196;-73
2021/10/20 02:49:14;;;;;;;0.40;0.40;;;;;;;;;;5053763;28;20203;-72
2021/10/20 02:51:41;;;;;;;0.00;0.00;;;;;;;;;;5055568;28;20199;-72
2021/10/20 02:54:08;;;;;;;0.87;0.80;;;;;;;;;;5054467;28;20208;-73
2021/10/20 02:56:36;;;;;;;1.00;1.00;;;;;;;;;;5054488;28;20203;-73
2021/10/20 02:59:03;;;;;;;0.23;0.23;;;;;;;;;;5058396;28;20218;-73
2021/10/20 03:01:31;;;;;;;0.23;0.23;;;;;;;;;;5063341;28;20223;-73
2021/10/20 03:03:58;;;;;;;1.53;1.43;;;;;;;;;;5053707;28;20199;-73
2021/10/20 03:06:27;;;;;;;0.00;0.00;;;;;;;;;;5053985;28;20206;-73
2021/10/20 03:08:55;;;;;;;0.47;0.47;;;;;;;;;;5053186;28;20200;-73
2021/10/20 03:11:22;;;;;;;1.17;0.80;;;;;;;;;;5055714;28;20200;-73
2021/10/20 03:13:49;;;;;;;1.60;1.17;;;;;;;;;;5059162;28;20229;-73
2021/10/20 03:16:17;;;;;;;0.57;0.57;;;;;;;;;;5057295;28;20207;-73
2021/10/20 03:18:44;;;;;;;1.70;1.33;;;;;;;;;;5052307;28;20585;-73
2021/10/20 03:21:12;;;;;;;0.53;0.50;;;;;;;;;;5056873;28;20210;-73
2021/10/20 03:23:41;;;;;;;1.20;1.20;;;;;;;;;;5056212;28;20214;-73
2021/10/20 03:26:08;;;;;;;0.00;0.00;;;;;;;;;;5054318;28;20199;-73
2021/10/20 03:28:36;;;;;;;0.00;0.00;;;;;;;;;;5053671;28;20203;-73
2021/10/20 03:31:03;;;;;;;1.60;1.20;;;;;;;;;;5055417;28;20743;-71
2021/10/20 03:33:30;;;;;;;1.80;1.70;;;;;;;;;;5057951;28;20716;-73
2021/10/20 03:35:58;;;;;;;0.50;0.50;;;;;;;;;;5053066;28;20229;-73
2021/10/20 03:38:25;;;;;;;0.10;0.10;;;;;;;;;;5055051;28;20564;-73
2021/10/20 03:40:54;;;;;;;0.00;0.00;;;;;;;;;;5057722;28;20227;-73
2021/10/20 03:43:22;;;;;;;1.10;0.93;;;;;;;;;;5051793;28;20262;-73
2021/10/20 03:45:49;;;;;;;0.40;0.30;;;;;;;;;;5058343;28;20282;-73
2021/10/20 03:48:16;;;;;;;0.67;0.67;;;;;;;;;;5056742;28;20300;-73
2021/10/20 03:50:44;;;;;;;0.30;0.30;;;;;;;;;;5059524;28;20211;-72
2021/10/20 03:53:11;;;;;;;1.60;1.00;;;;;;;;;;5067834;28;20549;-73
2021/10/20 03:55:39;;;;;;;0.00;0.00;;;;;;;;;;5052893;28;20477;-73
2021/10/20 03:58:08;;;;;;;0.40;0.40;;;;;;;;;;5054130;28;20209;-73
2021/10/20 04:00:36;;;;;;;0.00;0.00;;;;;;;;;;5061421;28;20576;-73
2021/10/20 04:03:03;;;;;;;1.00;1.00;;;;;;;;;;5053534;28;20266;-73
2021/10/20 04:05:31;;;;;;;0.00;0.00;;;;;;;;;;5052235;28;20222;-72
2021/10/20 04:07:58;;;;;;;0.20;0.20;;;;;;;;;;5051015;28;20203;-73
2021/10/20 04:10:26;;;;;;;0.97;0.93;;;;;;;;;;5049375;28;20205;-72
2021/10/20 04:12:54;;;;;;;1.30;0.67;;;;;;;;;;5050952;28;20203;-72
2021/10/20 04:15:24;;;;;;;0.87;0.63;;;;;;;;;;5054267;28;20219;-73
2021/10/20 04:17:51;;;;;;;0.83;0.83;;;;;;;;;;5049445;28;20218;-73
2021/10/20 04:20:20;;;;;;;0.10;0.10;;;;;;;;;;5053113;28;20199;-72
2021/10/20 04:22:49;;;;;;;0.13;0.10;;;;;;;;;;5054794;28;20231;-72
2021/10/20 04:25:16;;;;;;;0.07;0.07;;;;;;;;;;5058435;28;20203;-73
2021/10/20 04:27:44;;;;;;;0.63;0.60;;;;;;;;;;5050408;28;20205;-72
2021/10/20 04:30:13;;;;;;;1.40;1.30;;;;;;;;;;5050752;28;20201;-73
2021/10/20 04:32:41;;;;;;;1.40;1.30;;;;;;;;;;5048780;28;20231;-73
2021/10/20 04:35:11;;;;;;;0.00;0.00;;;;;;;;;;5051103;28;20788;-72
2021/10/20 04:37:39;;;;;;;0.57;0.30;;;;;;;;;;5053560;28;20199;-72
2021/10/20 04:40:07;;;;;;;0.37;0.37;;;;;;;;;;5052271;28;20214;-73
2021/10/20 04:42:35;;;;;;;0.23;0.23;;;;;;;;;;5050587;28;20238;-73
2021/10/20 04:45:02;;;;;;;0.33;0.33;;;;;;;;;;5054153;28;20279;-73
2021/10/20 04:47:30;;;;;;;0.97;0.73;;;;;;;;;;5052994;28;20200;-74
2021/10/20 04:50:00;;;;;;;0.63;0.63;;;;;;;;;;5049504;28;20200;-73
2021/10/20 04:52:30;;;;;;;0.10;0.10;;;;;;;;;;5056506;28;20200;-72
2021/10/20 04:54:58;;;;;;;0.00;0.00;;;;;;;;;;5058528;28;20242;-73
2021/10/20 04:57:26;;;;;;;0.27;0.27;;;;;;;;;;5057467;28;20210;-73
2021/10/20 04:59:53;;;;;;;0.10;0.10;;;;;;;;;;5058760;28;20203;-73
2021/10/20 05:02:21;;;;;;;0.83;0.83;;;;;;;;;;5052690;28;20227;-73
2021/10/20 05:04:48;;;;;;;0.10;0.10;;;;;;;;;;5056124;28;20292;-73
2021/10/20 05:07:21;;;;;;;0.13;0.13;;;;;;;;;;5060145;28;20204;-73
2021/10/20 05:09:51;;;;;;;0.77;0.77;;;;;;;;;;5051496;28;20204;-73
2021/10/20 05:12:19;;;;;;;2.10;1.20;;;;;;;;;;5051620;28;20582;-71
2021/10/20 05:14:47;;;;;;;0.53;0.53;;;;;;;;;;5053259;28;20203;-73
2021/10/20 05:17:14;;;;;;;0.97;0.63;;;;;;;;;;5051677;28;20214;-73
2021/10/20 05:19:42;;;;;;;0.63;0.63;;;;;;;;;;5055771;28;20205;-73
2021/10/20 05:22:09;;;;;;;0.00;0.00;;;;;;;;;;5051957;28;20223;-73
2021/10/20 05:24:38;;;;;;;0.03;0.00;;;;;;;;;;5053069;28;20318;-74
2021/10/20 05:27:06;;;;;;;2.13;0.53;;;;;;;;;;5050530;28;20245;-71
2021/10/20 05:29:33;;;;;;;0.00;0.00;;;;;;;;;;5051078;28;20211;-73
2021/10/20 05:32:01;;;;;;;0.33;0.33;;;;;;;;;;5051131;28;20212;-73
2021/10/20 05:34:28;;;;;;;0.00;0.00;;;;;;;;;;5054382;28;20988;-73
2021/10/20 05:36:56;;;;;;;0.00;0.00;;;;;;;;;;5048509;28;20683;-73
2021/10/20 05:39:23;;;;;;;0.00;0.00;;;;;;;;;;5049932;28;20210;-72
2021/10/20 05:41:52;;;;;;;0.77;0.53;;;;;;;;;;5052546;28;20225;-71
2021/10/20 05:44:20;;;;;;;0.50;0.50;;;;;;;;;;5053593;28;20274;-73
2021/10/20 05:46:49;;;;;;;0.00;0.00;;;;;;;;;;5048454;28;20843;-72
2021/10/20 05:49:17;;;;;;;0.00;0.00;;;;;;;;;;5047516;28;20203;-73
2021/10/20 05:51:44;;;;;;;0.13;0.07;;;;;;;;;;5052725;28;20204;-73
2021/10/20 05:54:12;;;;;;;0.00;0.00;;;;;;;;;;5050372;28;20196;-72
2021/10/20 05:56:39;;;;;;;0.23;0.23;;;;;;;;;;5047359;28;20210;-73
2021/10/20 05:59:08;;;;;;;0.00;0.00;;;;;;;;;;5046397;28;20215;-72
2021/10/20 06:01:35;;;;;;;0.10;0.10;;;;;;;;;;5050767;28;20766;-73
2021/10/20 06:04:04;;;;;;;0.97;0.67;;;;;;;;;;5052164;28;20237;-73
2021/10/20 06:06:31;;;;;;;0.73;0.73;;;;;;;;;;5049815;28;20262;-72
2021/10/20 06:08:59;;;;;;;1.73;1.50;;;;;;;;;;5053072;28;20211;-73
2021/10/20 06:11:26;;;;;;;1.80;0.70;;;;;;;;;;5053249;28;20209;-72
2021/10/20 06:13:54;;;;;;;1.60;1.50;;;;;;;;;;5049232;28;20684;-76
2021/10/20 06:16:23;;;;;;;0.57;0.57;;;;;;;;;;5046403;28;20711;-78
2021/10/20 06:18:50;;;;;;;0.53;0.53;;;;;;;;;;5048683;28;20206;-78
2021/10/20 06:21:18;;;;;;;0.63;0.63;;;;;;;;;;5048697;28;20209;-77
2021/10/20 06:23:45;;;;;;;0.97;0.83;;;;;;;;;;5053950;28;20712;-79
2021/10/20 06:26:13;;;;;;;0.33;0.33;;;;;;;;;;5048035;28;20199;-78
2021/10/20 06:28:40;;;;;;;0.47;0.47;;;;;;;;;;5050629;28;20305;-75
2021/10/20 06:31:08;;;;;;;1.33;1.23;;;;;;;;;;5050014;28;20252;-77
2021/10/20 06:33:37;;;;;;;0.07;0.00;;;;;;;;;;5048204;28;20262;-80
2021/10/20 06:36:04;;;;;;;0.67;0.67;;;;;;;;;;5052328;28;20329;-78
2021/10/20 06:38:32;;;;;;;0.00;0.00;;;;;;;;;;5050762;28;20214;-78
2021/10/20 06:40:59;;;;;;;0.47;0.47;;;;;;;;;;5052545;28;20203;-78
2021/10/20 06:43:27;;;;;;;0.10;0.10;;;;;;;;;;5048857;28;20211;-79
2021/10/20 06:45:54;;;;;;;0.10;0.10;;;;;;;;;;5047302;28;20208;-78
2021/10/20 06:48:22;;;;;;;0.93;0.70;;;;;;;;;;5050036;28;20599;-78
2021/10/20 06:50:51;;;;;;;0.63;0.40;;;;;;;;;;5053269;28;20248;-75
2021/10/20 06:53:18;;;;;;;1.60;1.40;;;;;;;;;;5051790;28;20287;-77
2021/10/20 06:55:46;;;;;;;0.23;0.17;;;;;;;;;;5050515;28;20709;-78
2021/10/20 06:58:13;;;;;;;0.70;0.70;;;;;;;;;;5052060;28;20203;-79
2021/10/20 07:00:41;;;;;;;0.47;0.47;;;;;;;;;;5063313;28;20656;-78
2021/10/20 07:03:08;;;;;;;0.47;0.47;;;;;;;;;;5051761;28;20592;-78
2021/10/20 07:05:36;;;;;;;0.30;0.30;;;;;;;;;;5051857;28;20204;-80
2021/10/20 07:08:05;;;;;;;1.07;0.77;;;;;;;;;;5059562;28;20552;-77
2021/10/20 07:10:32;;;;;;;0.97;0.80;;;;;;;;;;5049288;28;20206;-78
2021/10/20 07:13:00;;;;;;;0.53;0.53;;;;;;;;;;5055888;28;20203;-76
2021/10/20 07:15:28;;;;;;;1.20;0.87;;;;;;;;;;5049315;28;20196;-81
2021/10/20 07:17:55;;;;;;;2.10;1.73;;;;;;;;;;5050791;28;20207;-82
2021/10/20 07:20:22;;;;;;;0.27;0.27;;;;;;;;;;5046637;28;20208;-77
2021/10/20 07:22:50;;;;;;;0.83;0.83;;;;;;;;;;5057770;28;20279;-78
2021/10/20 07:25:19;;;;;;;1.10;1.10;;;;;;;;;;5050645;28;20658;-78
2021/10/20 07:27:47;;;;;;;1.33;1.10;;;;;;;;;;5048465;28;20277;-77
2021/10/20 07:30:16;;;;;;;0.50;0.40;;;;;;;;;;5048337;28;20195;-77
2021/10/20 07:32:44;;;;;;;1.20;1.03;;;;;;;;;;5053531;28;20316;-76
2021/10/20 07:35:12;;;;;;;1.00;1.00;;;;;;;;;;5054276;28;20207;-77
2021/10/20 07:37:40;;;;;;;0.23;0.23;;;;;;;;;;5057176;28;20199;-74
2021/10/20 07:40:09;;;;;;;0.87;0.87;;;;;;;;;;5051912;28;20857;-76
2021/10/20 07:42:39;;;;;;;7.80;2.10;;;;;;;;;;5054575;28;20228;-77
2021/10/20 07:45:07;;;;;;;0.40;0.40;;;;;;;;;;5055521;28;20223;-77
2021/10/20 07:47:37;;;;;;;2.13;2.03;;;;;;;;;;5054624;28;20700;-76
2021/10/20 07:50:05;;;;;;;3.00;1.70;;;;;;;;;;5055217;28;20205;-75
2021/10/20 07:52:33;;;;;;;1.53;1.40;;;;;;;;;;5055007;28;20657;-75
2021/10/20 07:55:01;;;;;;;0.90;0.90;;;;;;;;;;5055642;28;20207;-79
2021/10/20 07:57:29;;;;;;;1.50;1.23;;;;;;;;;;5050774;28;20218;-80
2021/10/20 07:59:58;;;;;;;0.73;0.73;;;;;;;;;;5054943;28;20195;-82
2021/10/20 08:02:26;;;;;;;1.20;1.10;;;;;;;;;;5053209;28;20207;-78
2021/10/20 08:04:53;;;;;;;2.30;2.00;;;;;;;;;;5048881;28;21723;-78
2021/10/20 08:07:21;;;;;;;1.50;1.40;;;;;;;;;;5052134;28;20233;-77
2021/10/20 08:09:49;;;;;;;0.87;0.50;;;;;;;;;;5052151;28;20202;-78
2021/10/20 08:12:19;;;;;;;3.27;1.23;;;;;;;;;;5051019;28;20204;-79
2021/10/20 08:14:47;;;;;;;3.07;1.83;;;;;;;;;;5051192;28;20208;-77
2021/10/20 08:17:16;;;;;;;1.10;0.90;;;;;;;;;;5051531;28;20294;-76
2021/10/20 08:19:43;;;;;;;3.80;1.60;;;;;;;;;;5053870;28;20207;-75
2021/10/20 08:22:10;;;;;;;1.13;1.13;;;;;;;;;;5051445;28;20253;-76
2021/10/20 08:24:40;;;;;;;1.07;1.03;;;;;;;;;;5053766;28;20579;-75
2021/10/20 08:27:08;;;;;;;3.23;2.93;;;;;;;;;;5054873;28;20199;-75
2021/10/20 08:29:37;;;;;;;4.17;2.70;;;;;;;;;;5054583;28;20192;-79
2021/10/20 08:32:05;;;;;;;1.30;0.97;;;;;;;;;;5055994;28;20214;-73
2021/10/20 08:34:34;;;;;;;0.93;0.90;;;;;;;;;;5054919;28;20232;-75
2021/10/20 08:37:02;;;;;;;2.33;1.83;;;;;;;;;;5052352;28;20196;-75
2021/10/20 08:39:30;;;;;;;2.57;2.37;;;;;;;;;;5056620;28;20214;-74
2021/10/20 08:41:58;;;;;;;0.77;0.77;;;;;;;;;;5053156;28;20208;-74
2021/10/20 08:44:26;;;;;;;9.67;5.80;;;;;;;;;;5053446;28;20297;-74
2021/10/20 08:46:53;;;;;;;0.73;0.73;;;;;;;;;;5058356;28;20290;-75
2021/10/20 08:49:21;;;;;;;3.50;2.33;;;;;;;;;;5063621;28;20199;-74
2021/10/20 08:51:50;;;;;;;0.50;0.50;;;;;;;;;;5053700;28;20665;-75
2021/10/20 08:54:17;;;;;;;0.83;0.70;;;;;;;;;;5056920;28;20240;-74
2021/10/20 08:56:45;;;;;;;0.73;0.73;;;;;;;;;;5051637;28;20632;-75
2021/10/20 08:59:15;;;;;;;0.67;0.67;;;;;;;;;;5062713;28;20683;-74
2021/10/20 09:01:43;;;;;;;1.30;0.77;;;;;;;;;;5056272;28;20285;-73
2021/10/20 09:04:10;;;;;;;0.57;0.57;;;;;;;;;;5053988;28;20731;-73
2021/10/20 09:06:38;;;;;;;0.80;0.73;;;;;;;;;;5051296;28;20195;-73
2021/10/20 09:09:08;;;;;;;4.37;3.63;;;;;;;;;;5051332;28;20210;-73
2021/10/20 09:11:35;;;;;;;2.30;2.00;;;;;;;;;;5052849;28;20214;-73
2021/10/20 09:14:04;;;;;;;1.60;1.17;;;;;;;;;;5051525;28;20237;-74
2021/10/20 09:16:34;;;;;;;2.40;2.20;;;;;;;;;;5067851;28;20195;-74
2021/10/20 09:19:11;;;;;;;3.60;2.37;;;;;;;;;;5053067;28;20653;-73
2021/10/20 09:22:08;;;;;;;3.73;2.00;;;;;;;;;;5053359;28;21180;-74
2021/10/20 09:24:39;;;;;;;2.10;1.77;;;;;;;;;;5059061;28;20285;-74
2021/10/20 09:27:07;;;;;;;1.57;1.43;;;;;;;;;;5053835;28;20238;-75
2021/10/20 09:29:35;;;;;;;3.30;2.67;;;;;;;;;;5052177;28;20286;-75
2021/10/20 09:32:03;;;;;;;0.93;0.67;;;;;;;;;;5048412;28;20207;-75
2021/10/20 09:34:35;;;;;;;1.17;1.00;;;;;;;;;;5049698;28;20650;-76
2021/10/20 09:37:03;;;;;;;2.83;2.63;;;;;;;;;;5048503;28;20258;-78
2021/10/20 09:39:31;;;;;;;1.50;1.40;;;;;;;;;;5049736;28;20261;-74
2021/10/20 09:42:09;;;;;;;2.17;1.97;;;;;;;;;;5049998;28;20287;-78
2021/10/20 09:44:46;;;;;;;1.20;1.10;;;;;;;;;;5048401;28;20680;-83
2021/10/20 09:47:14;;;;;;;4.93;1.90;;;;;;;;;;5050140;28;20202;-77
2021/10/20 09:49:59;;;;;;;6.00;2.73;;;;;;;;;;5066923;28;20233;-84
2021/10/20 09:52:29;;;;;;;1.20;1.07;;;;;;;;;;5054298;28;20213;-75
2021/10/20 09:54:58;;;;;;;0.13;0.13;;;;;;;;;;5056774;28;20199;-77
2021/10/20 09:57:32;;;;;;;2.37;1.60;;;;;;;;;;5052416;28;20214;-74
2021/10/20 10:00:02;;;;;;;1.33;1.23;;;;;;;;;;5058624;28;20198;-73
2021/10/20 10:02:29;;;;;;;1.80;1.70;;;;;;;;;;5060037;28;20253;-83
2021/10/20 10:04:58;;;;;;;3.27;2.73;;;;;;;;;;5050936;28;20241;-75
2021/10/20 10:07:25;;;;;;;1.40;1.30;;;;;;;;;;5047629;28;20202;-73
2021/10/20 10:09:55;;;;;;;0.43;0.43;;;;;;;;;;5052299;28;20322;-74
2021/10/20 10:12:25;;;;;;;0.80;0.67;;;;;;;;;;5051117;28;20205;-73
2021/10/20 10:14:58;;;;;;;0.93;0.80;;;;;;;;;;5050988;28;20203;-79
2021/10/20 10:17:26;;;;;;;0.70;0.70;;;;;;;;;;5052601;28;20294;-74
2021/10/20 10:19:54;;;;;;;1.73;1.40;;;;;;;;;;5050800;28;20195;-74
2021/10/20 10:22:23;;;;;;;1.07;1.07;;;;;;;;;;5050965;28;20290;-73
2021/10/20 10:24:50;;;;;;;0.87;0.87;;;;;;;;;;5048202;28;20206;-73
2021/10/20 10:27:19;;;;;;;1.93;1.73;;;;;;;;;;5048624;28;20203;-73
2021/10/20 10:29:50;;;;;;;2.57;2.27;;;;;;;;;;5051132;28;20231;-75
2021/10/20 10:32:20;;;;;;;2.53;2.33;;;;;;;;;;5051177;28;20939;-75
2021/10/20 10:34:48;;;;;;;1.10;1.10;;;;;;;;;;5047424;28;21280;-73
2021/10/20 10:37:26;;;;;;;0.50;0.50;;;;;;;;;;5050753;28;20218;-74
2021/10/20 10:39:54;;;;;;;2.17;1.97;;;;;;;;;;5051186;28;20198;-74
2021/10/20 10:42:31;;;;;;;0.50;0.43;;;;;;;;;;5046773;28;20206;-71
2021/10/20 10:45:09;;;;;;;0.53;0.53;;;;;;;;;;5050754;28;20234;-71
2021/10/20 10:47:55;;;;;;;1.20;0.43;;;;;;;;;;5049179;28;20207;-70
2021/10/20 10:50:22;;;;;;;0.53;0.53;;;;;;;;;;5047271;28;20257;-70
2021/10/20 10:52:54;;;;;;;0.30;0.30;;;;;;;;;;5048720;28;20213;-73
2021/10/20 10:55:22;;;;;;;0.70;0.70;;;;;;;;;;5050022;28;21939;-74
2021/10/20 10:57:55;;;;;;;2.00;1.90;;;;;;;;;;5051000;28;20188;-71
2021/10/20 11:00:40;;;;;;;3.10;1.90;;;;;;;;;;5046641;28;20633;-76
2021/10/20 11:03:23;;;;;;;0.37;0.33;;;;;;;;;;5041599;28;20208;-74
2021/10/20 11:06:00;;;;;;;3.00;1.13;;;;;;;;;;5048422;28;20214;-75
2021/10/20 11:08:29;;;;;;;1.83;1.73;;;;;;;;;;5050518;28;20195;-73
2021/10/20 11:10:56;;;;;;;1.33;1.27;;;;;;;;;;5050717;28;20208;-73
2021/10/20 11:13:24;;;;;;;0.53;0.53;;;;;;;;;;5049281;28;20203;-72
2021/10/20 11:15:51;;;;;;;2.00;1.47;;;;;;;;;;5055662;28;20200;-74
2021/10/20 11:18:21;;;;;;;0.00;0.00;;;;;;;;;;5052541;28;20843;-74
2021/10/20 11:20:49;;;;;;;0.73;0.33;;;;;;;;;;5052749;28;20300;-76
2021/10/20 11:23:18;;;;;;;0.50;0.30;;;;;;;;;;5049862;28;20214;-74
2021/10/20 11:25:46;;;;;;;0.93;0.60;;;;;;;;;;5051970;28;20211;-74
2021/10/20 11:28:14;;;;;;;0.57;0.57;;;;;;;;;;5053355;28;20211;-75
2021/10/20 11:30:42;;;;;;;0.97;0.90;;;;;;;;;;5050470;28;20206;-74
2021/10/20 11:33:11;;;;;;;0.63;0.63;;;;;;;;;;5052228;28;20584;-74
2021/10/20 11:35:38;;;;;;;1.03;0.90;;;;;;;;;;5050710;28;20194;-74
2021/10/20 11:38:09;;;;;;;0.00;0.00;;;;;;;;;;5056233;28;20297;-74
2021/10/20 11:40:39;;;;;;;1.00;0.60;;;;;;;;;;5052666;28;20571;-74
2021/10/20 11:43:14;;;;;;;0.00;0.00;;;;;;;;;;5047087;28;20199;-74
2021/10/20 11:45:41;;;;;;;0.00;0.00;;;;;;;;;;5052153;28;20724;-74
2021/10/20 11:48:09;;;;;;;0.57;0.17;;;;;;;;;;5053863;28;20204;-74
2021/10/20 11:50:36;;;;;;;0.20;0.20;;;;;;;;;;5054571;28;20532;-74
2021/10/20 11:53:06;;;;;;;0.10;0.10;;;;;;;;;;5050464;28;20214;-74
2021/10/20 11:55:34;;;;;;;0.10;0.10;;;;;;;;;;5049072;28;20204;-73
2021/10/20 11:58:02;;;;;;;0.00;0.00;;;;;;;;;;5052923;28;20225;-74
2021/10/20 12:00:34;;;;;;;0.63;0.47;;;;;;;;;;5050237;28;20282;-74
2021/10/20 12:03:01;;;;;;;0.47;0.40;;;;;;;;;;5051553;28;20665;-73
2021/10/20 12:05:29;;;;;;;0.20;0.20;;;;;;;;;;5054153;28;20247;-74
2021/10/20 12:07:57;;;;;;;0.10;0.10;;;;;;;;;;5050746;28;20200;-71
2021/10/20 12:10:24;;;;;;;0.20;0.20;;;;;;;;;;5051144;28;20214;-74
2021/10/20 12:12:53;;;;;;;0.00;0.00;;;;;;;;;;5055012;28;20204;-74
2021/10/20 12:15:22;;;;;;;0.07;0.07;;;;;;;;;;5052891;28;20206;-75
2021/10/20 12:17:51;;;;;;;0.13;0.13;;;;;;;;;;5054212;28;20217;-76
2021/10/20 12:20:19;;;;;;;0.00;0.00;;;;;;;;;;5051232;28;20211;-73
2021/10/20 12:22:47;;;;;;;0.40;0.40;;;;;;;;;;5050667;28;20557;-74
2021/10/20 12:25:15;;;;;;;0.00;0.00;;;;;;;;;;5050882;28;20234;-74
2021/10/20 12:27:43;;;;;;;0.73;0.50;;;;;;;;;;5047449;28;20294;-73
2021/10/20 12:30:13;;;;;;;0.10;0.10;;;;;;;;;;5052575;28;20303;-75
2021/10/20 12:32:40;;;;;;;0.30;0.30;;;;;;;;;;5052652;28;20222;-74
2021/10/20 12:35:09;;;;;;;0.00;0.00;;;;;;;;;;5058418;28;20199;-75
2021/10/20 12:37:38;;;;;;;0.43;0.43;;;;;;;;;;5059488;28;20652;-78
2021/10/20 12:40:11;;;;;;;0.53;0.53;;;;;;;;;;5052728;28;20211;-72
2021/10/20 12:42:46;;;;;;;0.23;0.23;;;;;;;;;;5051440;28;20237;-71
2021/10/20 12:45:15;;;;;;;0.50;0.50;;;;;;;;;;5048279;28;20254;-72
2021/10/20 12:47:44;;;;;;;0.00;0.00;;;;;;;;;;5049983;28;20713;-72
2021/10/20 12:50:13;;;;;;;1.07;0.80;;;;;;;;;;5049532;28;20275;-72
2021/10/20 12:52:40;;;;;;;0.00;0.00;;;;;;;;;;5049825;28;20664;-78
2021/10/20 12:55:09;;;;;;;0.37;0.37;;;;;;;;;;5046785;28;20213;-75
2021/10/20 12:57:38;;;;;;;0.20;0.20;;;;;;;;;;5050743;28;20638;-72
2021/10/20 13:00:10;;;;;;;1.10;1.07;;;;;;;;;;5048586;28;20591;-73
2021/10/20 13:02:39;;;;;;;0.40;0.17;;;;;;;;;;5048127;28;20203;-73
2021/10/20 13:05:08;;;;;;;0.17;0.17;;;;;;;;;;5048528;28;20700;-73
2021/10/20 13:07:36;;;;;;;0.60;0.27;;;;;;;;;;5050460;28;20211;-75
2021/10/20 13:10:04;;;;;;;0.20;0.10;;;;;;;;;;5050147;28;20326;-74
2021/10/20 13:12:32;;;;;;;0.23;0.23;;;;;;;;;;5054561;28;20238;-71
2021/10/20 13:14:59;;;;;;;2.57;1.07;;;;;;;;;;5049505;28;20198;-72
2021/10/20 13:17:27;;;;;;;0.43;0.33;;;;;;;;;;5047885;28;20211;-71
2021/10/20 13:19:56;;;;;;;0.43;0.43;;;;;;;;;;5047146;28;20203;-78
2021/10/20 13:22:23;;;;;;;0.20;0.20;;;;;;;;;;5051254;28;20237;-75
2021/10/20 13:24:51;;;;;;;0.30;0.30;;;;;;;;;;5047943;28;20230;-72
2021/10/20 13:27:18;;;;;;;0.50;0.27;;;;;;;;;;5047811;28;20222;-72
2021/10/20 13:29:45;;;;;;;0.10;0.10;;;;;;;;;;5049923;28;20200;-73
2021/10/20 13:32:13;;;;;;;0.97;0.90;;;;;;;;;;5048290;28;20207;-72
2021/10/20 13:34:40;;;;;;;0.17;0.17;;;;;;;;;;5048922;28;20238;-71
2021/10/20 13:37:09;;;;;;;0.87;0.87;;;;;;;;;;5048738;28;20206;-72
2021/10/20 13:39:37;;;;;;;0.53;0.53;;;;;;;;;;5047048;28;20335;-72
2021/10/20 13:42:05;;;;;;;0.10;0.10;;;;;;;;;;5051332;28;20845;-71
2021/10/20 13:44:32;;;;;;;0.27;0.20;;;;;;;;;;5049930;28;20362;-71
2021/10/20 13:47:01;;;;;;;0.10;0.10;;;;;;;;;;5046161;28;20567;-72
2021/10/20 13:49:29;;;;;;;1.13;0.67;;;;;;;;;;5051362;28;20204;-72
2021/10/20 13:51:56;;;;;;;0.17;0.17;;;;;;;;;;5049574;28;20234;-72
2021/10/20 13:54:29;;;;;;;0.10;0.10;;;;;;;;;;5047660;28;20291;-72
2021/10/20 13:56:57;;;;;;;0.47;0.47;;;;;;;;;;5049973;28;20219;-72
2021/10/20 13:59:25;;;;;;;0.97;0.23;;;;;;;;;;5051910;28;20199;-73
2021/10/20 14:01:53;;;;;;;1.33;1.13;;;;;;;;;;5051798;28;20222;-72
2021/10/20 14:04:21;;;;;;;0.20;0.10;;;;;;;;;;5049590;28;20203;-72
2021/10/20 14:06:53;;;;;;;0.00;0.00;;;;;;;;;;5050155;28;20572;-74
2021/10/20 14:09:21;;;;;;;0.77;0.67;;;;;;;;;;5069964;28;20198;-69
2021/10/20 14:11:51;;;;;;;0.10;0.10;;;;;;;;;;5064211;28;20230;-73
2021/10/20 14:14:18;;;;;;;1.80;0.90;;;;;;;;;;5057414;28;20202;-73
2021/10/20 14:16:46;;;;;;;0.30;0.13;;;;;;;;;;5047167;28;20209;-73
2021/10/20 14:19:14;;;;;;;0.30;0.30;;;;;;;;;;5050249;28;20187;-73
2021/10/20 14:21:41;;;;;;;0.40;0.40;;;;;;;;;;5045253;28;20290;-73
2021/10/20 14:24:09;;;;;;;0.87;0.23;;;;;;;;;;5052409;28;20207;-70
2021/10/20 14:26:38;;;;;;;0.67;0.67;;;;;;;;;;5065640;28;20231;-72
2021/10/20 14:29:08;;;;;;;5.93;1.30;;;;;;;;;;5049436;28;20202;-71
2021/10/20 14:31:38;;;;;;;0.27;0.27;;;;;;;;;;5047452;28;20191;-70
2021/10/20 14:34:06;;;;;;;0.00;0.00;;;;;;;;;;5048011;28;20284;-73
2021/10/20 14:36:34;;;;;;;7.83;0.47;;;;;;;;;;5048704;28;20219;-72
2021/10/20 14:39:02;;;;;;;0.37;0.37;;;;;;;;;;5048830;28;20675;-73
2021/10/20 14:41:30;;;;;;;0.00;0.00;;;;;;;;;;5049030;28;20261;-72
2021/10/20 14:44:02;;;;;;;2.03;1.50;;;;;;;;;;5061934;28;20214;-73
2021/10/20 14:46:31;;;;;;;0.30;0.30;;;;;;;;;;5053273;28;20296;-73
2021/10/20 14:48:58;;;;;;;0.37;0.20;;;;;;;;;;5047226;28;20207;-72
2021/10/20 14:51:25;;;;;;;0.50;0.50;;;;;;;;;;5052890;28;20203;-75